createdAt,value
2024-01-28T00:02:45.941Z,54.04
2024-01-28T00:04:48.272Z,54.01
2024-01-28T00:06:52.571Z,54.18
2024-01-28T00:08:56.588Z,54.14
2024-01-28T00:10:58.132Z,54.18
2024-01-28T00:13:02.285Z,54.09
2024-01-28T00:15:04.420Z,53.98
2024-01-28T00:17:11.018Z,54.11
2024-01-28T00:19:14.038Z,54.09
2024-01-28T00:21:16.817Z,54.25
2024-01-28T00:23:29.588Z,54.18
2024-01-28T00:25:36.103Z,54.08
2024-01-28T00:27:47.830Z,54.07
2024-01-28T00:29:52.130Z,54.20
2024-01-28T00:31:57.168Z,54.18
2024-01-28T00:34:13.961Z,54.33
2024-01-28T00:36:17.813Z,54.00
2024-01-28T00:38:21.906Z,54.00
2024-01-28T00:40:23.383Z,53.98
2024-01-28T00:42:28.004Z,54.03
2024-01-28T00:44:29.536Z,53.93
2024-01-28T00:46:34.238Z,53.93
2024-01-28T00:48:35.842Z,54.03
2024-01-28T00:50:38.272Z,53.85
2024-01-28T00:52:41.626Z,54.18
2024-01-28T00:54:52.731Z,54.01
2024-01-28T00:57:08.427Z,53.79
2024-01-28T00:59:34.016Z,53.80
2024-01-28T01:01:45.662Z,53.85
2024-01-28T01:03:54.633Z,53.82
2024-01-28T01:06:00.007Z,54.04
2024-01-28T01:08:05.312Z,53.73
2024-01-28T01:10:30.603Z,54.11
2024-01-28T01:12:32.193Z,54.31
2024-01-28T01:14:36.747Z,54.09
2024-01-28T01:16:38.319Z,54.26
2024-01-28T01:18:40.024Z,54.13
2024-01-28T01:20:47.167Z,54.32
2024-01-28T01:22:48.684Z,54.20
2024-01-28T01:24:50.310Z,54.12
2024-01-28T01:26:52.574Z,54.35
2024-01-28T01:28:54.172Z,54.30
2024-01-28T01:30:58.192Z,54.24
2024-01-28T01:33:02.259Z,54.23
2024-01-28T01:35:04.477Z,54.35
2024-01-28T01:37:08.515Z,54.05
2024-01-28T01:39:11.319Z,54.13
2024-01-28T01:41:19.217Z,54.26
2024-01-28T01:43:33.548Z,54.31
2024-01-28T01:45:45.536Z,54.19
2024-01-28T01:47:50.624Z,54.38
2024-01-28T01:49:58.199Z,54.18
2024-01-28T01:52:03.673Z,54.52
2024-01-28T01:54:05.939Z,54.26
2024-01-28T01:56:10.969Z,54.47
2024-01-28T01:58:12.929Z,54.14
2024-01-28T02:00:17.972Z,53.96
2024-01-28T02:02:20.046Z,54.13
2024-01-28T02:04:22.449Z,53.99
2024-01-28T02:06:24.176Z,54.18
2024-01-28T02:08:28.002Z,54.02
2024-01-28T02:10:30.878Z,54.24
2024-01-28T02:12:40.357Z,54.43
2024-01-28T02:14:43.761Z,54.16
2024-01-28T02:16:49.369Z,54.21
2024-01-28T02:18:58.195Z,54.17
2024-01-28T02:21:16.384Z,54.27
2024-01-28T02:23:29.440Z,54.09
2024-01-28T02:25:34.312Z,54.32
2024-01-28T02:27:43.228Z,54.37
2024-01-28T02:29:52.233Z,54.28
2024-01-28T02:31:56.786Z,54.45
2024-01-28T02:33:59.622Z,54.39
2024-01-28T02:36:01.316Z,54.26
2024-01-28T02:38:05.903Z,54.35
2024-01-28T02:40:08.244Z,54.50
2024-01-28T02:42:14.919Z,54.49
2024-01-28T02:44:16.580Z,54.06
2024-01-28T02:46:18.913Z,54.35
2024-01-28T02:48:22.523Z,54.30
2024-01-28T02:50:24.105Z,54.24
2024-01-28T02:52:27.805Z,54.33
2024-01-28T02:54:30.668Z,54.14
2024-01-28T02:56:34.710Z,54.00
2024-01-28T02:58:38.697Z,54.02
2024-01-28T03:00:40.404Z,54.14
2024-01-28T03:02:45.025Z,54.10
2024-01-28T03:04:47.078Z,54.44
2024-01-28T03:06:48.733Z,54.12
2024-01-28T03:08:52.973Z,54.02
2024-01-28T03:10:54.486Z,54.06
2024-01-28T03:12:59.107Z,54.24
2024-01-28T03:15:03.989Z,53.96
2024-01-28T03:17:05.545Z,54.13
2024-01-28T03:19:07.425Z,54.02
2024-01-28T03:21:13.564Z,54.02
2024-01-28T03:23:17.505Z,54.14
2024-01-28T03:25:19.034Z,54.19
2024-01-28T03:27:20.642Z,54.25
2024-01-28T03:29:22.299Z,54.19
2024-01-28T03:31:24.140Z,54.17
2024-01-28T03:33:25.918Z,54.12
2024-01-28T03:35:27.558Z,54.12
2024-01-28T03:37:29.188Z,54.10
2024-01-28T03:39:30.790Z,54.20
2024-01-28T03:41:34.833Z,54.25
2024-01-28T03:43:36.344Z,54.07
2024-01-28T03:45:38.140Z,54.13
2024-01-28T03:47:44.625Z,53.87
2024-01-28T03:49:47.503Z,54.17
2024-01-28T03:51:49.187Z,54.30
2024-01-28T03:53:51.226Z,54.48
2024-01-28T03:55:52.819Z,54.37
2024-01-28T03:57:57.038Z,54.09
2024-01-28T04:00:00.881Z,53.99
2024-01-28T04:02:02.645Z,54.21
2024-01-28T04:04:06.594Z,53.61
2024-01-28T04:06:08.449Z,54.11
2024-01-28T04:08:13.231Z,54.19
2024-01-28T04:10:18.037Z,54.09
2024-01-28T04:12:19.555Z,54.01
2024-01-28T04:14:22.310Z,54.04
2024-01-28T04:16:24.217Z,54.08
2024-01-28T04:18:29.115Z,54.24
2024-01-28T04:20:32.712Z,54.26
2024-01-28T04:22:34.322Z,54.24
2024-01-28T04:24:35.933Z,54.46
2024-01-28T04:26:39.707Z,54.17
2024-01-28T04:28:44.046Z,54.31
2024-01-28T04:30:47.690Z,54.43
2024-01-28T04:32:49.302Z,54.39
2024-01-28T04:34:53.306Z,54.15
2024-01-28T04:36:57.636Z,54.61
2024-01-28T04:39:01.507Z,54.22
2024-01-28T04:41:03.503Z,54.34
2024-01-28T04:43:06.485Z,54.10
2024-01-28T04:45:10.172Z,54.13
2024-01-28T04:47:14.186Z,54.25
2024-01-28T04:49:18.135Z,54.09
2024-01-28T04:51:19.841Z,54.11
2024-01-28T04:53:21.416Z,54.09
2024-01-28T04:55:25.590Z,54.34
2024-01-28T04:57:27.450Z,54.11
2024-01-28T04:59:34.243Z,54.13
2024-01-28T05:01:35.896Z,53.83
2024-01-28T05:03:39.807Z,53.98
2024-01-28T05:05:45.741Z,54.08
2024-01-28T05:07:49.749Z,54.01
2024-01-28T05:09:51.323Z,53.98
2024-01-28T05:11:52.930Z,54.09
2024-01-28T05:13:54.526Z,54.09
2024-01-28T05:15:58.812Z,54.10
2024-01-28T05:18:00.988Z,54.06
2024-01-28T05:20:05.243Z,54.36
2024-01-28T05:22:06.773Z,54.10
2024-01-28T05:24:08.407Z,53.93
2024-01-28T05:26:11.291Z,53.91
2024-01-28T05:28:15.326Z,54.15
2024-01-28T05:30:24.326Z,54.08
2024-01-28T05:32:29.744Z,53.93
2024-01-28T05:34:31.629Z,54.01
2024-01-28T05:36:33.430Z,53.94
2024-01-28T05:38:37.622Z,54.03
2024-01-28T05:40:42.424Z,54.19
2024-01-28T05:42:44.169Z,54.28
2024-01-28T05:44:45.719Z,54.45
2024-01-28T05:46:51.085Z,54.21
2024-01-28T05:48:54.565Z,54.06
2024-01-28T05:50:56.433Z,53.97
2024-01-28T05:53:00.273Z,54.13
2024-01-28T05:55:01.914Z,54.19
2024-01-28T05:57:04.214Z,54.21
2024-01-28T05:59:08.379Z,54.16
2024-01-28T06:01:10.666Z,54.06
2024-01-28T06:03:15.229Z,54.17
2024-01-28T06:05:18.955Z,54.27
2024-01-28T06:07:20.581Z,54.05
2024-01-28T06:09:24.574Z,54.13
2024-01-28T06:11:26.396Z,54.14
2024-01-28T06:13:30.145Z,54.22
2024-01-28T06:15:31.862Z,54.03
2024-01-28T06:17:45.855Z,53.93
2024-01-28T06:19:47.495Z,54.04
2024-01-28T06:21:51.874Z,54.22
2024-01-28T06:23:53.437Z,54.20
2024-01-28T06:28:46.037Z,54.01
2024-01-28T06:30:53.209Z,53.98
2024-01-28T06:32:57.813Z,53.89
2024-01-28T06:34:59.443Z,54.07
2024-01-28T06:37:00.972Z,54.28
2024-01-28T06:39:02.751Z,54.18
2024-01-28T06:41:04.910Z,53.90
2024-01-28T06:43:07.942Z,54.25
2024-01-28T06:45:12.997Z,54.27
2024-01-28T06:47:14.781Z,54.03
2024-01-28T06:49:20.059Z,54.19
2024-01-28T06:51:21.947Z,53.82
2024-01-28T06:53:23.631Z,54.02
2024-01-28T06:55:27.413Z,54.03
2024-01-28T06:57:32.211Z,53.88
2024-01-28T06:59:33.723Z,53.90
2024-01-28T07:01:37.976Z,54.37
2024-01-28T07:03:39.642Z,54.32
2024-01-28T07:05:43.319Z,54.15
2024-01-28T07:07:46.841Z,54.01
2024-01-28T07:09:50.951Z,54.13
2024-01-28T07:11:54.748Z,54.31
2024-01-28T07:13:57.644Z,54.16
2024-01-28T07:16:01.437Z,54.04
2024-01-28T07:18:03.346Z,54.01
2024-01-28T07:20:08.369Z,53.94
2024-01-28T07:22:12.852Z,53.88
2024-01-28T07:24:14.709Z,53.98
2024-01-28T07:26:16.512Z,54.23
2024-01-28T07:28:24.663Z,53.98
2024-01-28T07:31:03.770Z,54.25
2024-01-28T07:33:22.796Z,54.23
2024-01-28T07:35:24.489Z,54.31
2024-01-28T07:37:30.082Z,54.31
2024-01-28T07:39:31.641Z,54.34
2024-01-28T07:41:35.686Z,54.29
2024-01-28T07:43:37.174Z,54.38
2024-01-28T07:45:43.755Z,54.27
2024-01-28T07:47:51.393Z,54.64
2024-01-28T07:50:05.322Z,54.55
2024-01-28T07:52:16.141Z,54.32
2024-01-28T07:54:25.578Z,54.37
2024-01-28T07:56:29.334Z,54.13
2024-01-28T07:58:31.981Z,54.42
2024-01-28T08:00:33.515Z,54.42
2024-01-28T08:02:35.092Z,54.53
2024-01-28T08:04:43.479Z,54.56
2024-01-28T08:06:45.897Z,54.55
2024-01-28T08:08:47.506Z,54.43
2024-01-28T08:10:51.118Z,54.41
2024-01-28T08:12:55.333Z,54.98
2024-01-28T08:15:04.635Z,54.44
2024-01-28T08:17:10.075Z,54.61
2024-01-28T08:19:14.759Z,54.71
2024-01-28T08:21:21.897Z,54.18
2024-01-28T08:23:29.711Z,54.40
2024-01-28T08:25:37.705Z,54.51
2024-01-28T08:27:39.611Z,54.55
2024-01-28T08:29:43.272Z,54.66
2024-01-28T08:31:45.351Z,54.80
2024-01-28T08:33:47.053Z,54.59
2024-01-28T08:35:51.363Z,54.96
2024-01-28T08:37:56.378Z,55.11
2024-01-28T08:39:58.093Z,54.76
2024-01-28T08:42:00.623Z,54.71
2024-01-28T08:44:06.189Z,54.81
2024-01-28T08:46:07.717Z,54.69
2024-01-28T08:48:13.126Z,54.70
2024-01-28T08:50:15.321Z,54.70
2024-01-28T08:52:16.917Z,54.66
2024-01-28T08:54:20.514Z,54.84
2024-01-28T08:56:24.206Z,54.75
2024-01-28T08:58:25.683Z,54.87
2024-01-28T09:00:28.769Z,54.19
2024-01-28T09:02:32.669Z,54.41
2024-01-28T09:04:34.516Z,54.69
2024-01-28T09:06:38.469Z,54.68
2024-01-28T09:08:42.715Z,54.73
2024-01-28T09:10:48.658Z,54.91
2024-01-28T09:13:03.241Z,54.99
2024-01-28T09:15:08.658Z,54.98
2024-01-28T09:17:21.035Z,55.19
2024-01-28T09:19:38.164Z,54.76
2024-01-28T09:21:50.194Z,53.46
2024-01-28T09:23:58.405Z,52.52
2024-01-28T09:26:11.423Z,49.90
2024-01-28T09:28:15.317Z,50.62
2024-01-28T09:30:19.236Z,50.12
2024-01-28T09:32:26.188Z,49.30
2024-01-28T09:34:30.508Z,48.65
2024-01-28T09:36:32.146Z,48.59
2024-01-28T09:38:45.180Z,47.21
2024-01-28T09:41:08.785Z,47.56
2024-01-28T09:43:30.521Z,46.77
2024-01-28T09:45:32.596Z,48.02
2024-01-28T09:48:09.376Z,47.16
2024-01-28T09:50:24.937Z,47.82
2024-01-28T09:53:10.174Z,47.14
2024-01-28T09:55:02.143Z,47.86
2024-01-28T09:57:06.340Z,47.81
2024-01-28T09:59:09.508Z,47.94
2024-01-28T10:01:11.655Z,47.87
2024-01-28T10:03:13.298Z,47.81
2024-01-28T10:05:16.239Z,47.73
2024-01-28T10:07:18.077Z,47.64
2024-01-28T10:09:20.904Z,47.95
2024-01-28T10:11:22.632Z,47.84
2024-01-28T10:13:24.202Z,48.08
2024-01-28T10:15:29.032Z,48.28
2024-01-28T10:17:30.841Z,47.97
2024-01-28T10:19:35.319Z,48.58
2024-01-28T10:21:38.689Z,48.31
2024-01-28T10:23:40.321Z,48.38
2024-01-28T10:25:42.089Z,48.44
2024-01-28T10:27:50.673Z,48.45
2024-01-28T10:29:54.662Z,48.47
2024-01-28T10:32:05.067Z,48.42
2024-01-28T10:34:11.433Z,48.42
2024-01-28T10:36:13.830Z,48.18
2024-01-28T10:38:23.570Z,48.07
2024-01-28T10:40:37.030Z,47.29
2024-01-28T10:42:44.677Z,47.67
2024-01-28T10:44:58.893Z,49.57
2024-01-28T10:47:09.693Z,50.19
2024-01-28T10:49:26.203Z,51.81
2024-01-28T10:51:29.030Z,51.59
2024-01-28T10:53:35.937Z,52.08
2024-01-28T10:55:40.165Z,52.91
2024-01-28T10:57:42.587Z,52.98
2024-01-28T10:59:44.441Z,53.65
2024-01-28T11:01:47.376Z,53.72
2024-01-28T11:03:53.097Z,53.47
2024-01-28T11:05:57.651Z,53.90
2024-01-28T11:08:02.344Z,53.88
2024-01-28T11:10:06.387Z,54.00
2024-01-28T11:12:12.115Z,53.86
2024-01-28T11:14:15.393Z,53.92
2024-01-28T11:16:24.026Z,54.04
2024-01-28T11:18:31.742Z,54.29
2024-01-28T11:20:35.789Z,54.38
2024-01-28T11:22:55.293Z,54.67
2024-01-28T11:25:00.721Z,54.17
2024-01-28T11:27:08.434Z,54.33
2024-01-28T11:29:13.101Z,53.96
2024-01-28T11:31:36.619Z,54.53
2024-01-28T11:33:40.800Z,54.29
2024-01-28T11:35:46.877Z,54.51
2024-01-28T11:37:59.371Z,54.53
2024-01-28T11:40:25.115Z,54.70
2024-01-28T11:42:26.824Z,54.68
2024-01-28T11:44:41.002Z,54.94
2024-01-28T11:46:46.728Z,54.49
2024-01-28T11:48:48.551Z,54.38
2024-01-28T11:50:50.196Z,54.45
2024-01-28T11:52:52.013Z,54.56
2024-01-28T11:54:54.186Z,54.43
2024-01-28T11:57:03.127Z,53.94
2024-01-28T11:59:08.680Z,53.68
2024-01-28T12:01:28.573Z,53.14
2024-01-28T12:03:42.981Z,50.70
2024-01-28T12:05:44.552Z,52.04
2024-01-28T12:07:47.859Z,51.85
2024-01-28T12:10:16.670Z,51.42
2024-01-28T12:13:01.707Z,51.15
2024-01-28T12:16:02.663Z,50.79
2024-01-28T12:18:29.681Z,51.10
2024-01-28T12:20:37.419Z,50.69
2024-01-28T12:24:30.812Z,50.24
2024-01-28T12:36:03.550Z,49.06
2024-01-28T12:38:47.908Z,48.82
2024-01-28T12:41:08.059Z,48.60
2024-01-28T12:46:36.591Z,48.54
2024-01-28T12:51:08.945Z,47.90
2024-01-28T12:51:17.954Z,48.00
2024-01-28T12:55:41.559Z,47.51
2024-01-28T13:01:39.528Z,47.31
2024-01-28T13:04:12.056Z,47.53
2024-01-28T13:06:38.305Z,47.31
2024-01-28T13:08:58.439Z,46.78
2024-01-28T13:11:08.810Z,47.00
2024-01-28T13:13:17.274Z,46.56
2024-01-28T13:19:25.336Z,45.73
2024-01-28T13:21:56.565Z,45.18
2024-01-28T13:26:57.836Z,43.47
2024-01-28T13:29:08.951Z,44.78
2024-01-28T13:31:20.604Z,44.71
2024-01-28T13:33:32.582Z,44.84
2024-01-28T13:35:39.278Z,44.49
2024-01-28T13:37:43.821Z,44.34
2024-01-28T13:39:45.661Z,44.43
2024-01-28T13:41:47.214Z,44.52
2024-01-28T13:43:50.773Z,44.44
2024-01-28T13:45:54.631Z,44.43
2024-01-28T13:47:56.427Z,44.23
2024-01-28T13:50:01.883Z,43.96
2024-01-28T13:52:25.770Z,44.00
2024-01-28T13:54:27.359Z,44.21
2024-01-28T13:56:37.979Z,44.38
2024-01-28T13:58:57.016Z,44.36
2024-01-28T14:03:42.625Z,43.96
2024-01-28T14:04:24.170Z,44.28
2024-01-28T14:05:57.087Z,44.16
2024-01-28T14:08:01.009Z,44.11
2024-01-28T14:12:38.384Z,44.55
2024-01-28T14:14:52.514Z,44.35
2024-01-28T14:16:54.245Z,44.69
2024-01-28T14:19:38.331Z,43.64
2024-01-28T14:21:49.139Z,44.23
2024-01-28T14:24:15.397Z,44.34
2024-01-28T14:26:28.847Z,44.24
2024-01-28T14:29:13.235Z,44.02
2024-01-28T14:31:31.905Z,44.47
2024-01-28T14:41:30.590Z,44.23
2024-01-28T14:46:39.700Z,44.08
2024-01-28T14:48:48.528Z,44.27
2024-01-28T14:51:07.110Z,44.41
2024-01-28T14:56:41.777Z,43.89
2024-01-28T15:01:34.716Z,44.22
2024-01-28T15:09:00.780Z,44.63
2024-01-28T15:10:49.193Z,44.63
2024-01-28T15:11:02.867Z,45.04
2024-01-28T15:13:04.611Z,45.17
2024-01-28T15:15:08.480Z,45.12
2024-01-28T15:17:12.402Z,45.24
2024-01-28T15:19:14.201Z,45.14
2024-01-28T15:21:17.390Z,45.36
2024-01-28T15:23:22.067Z,45.34
2024-01-28T15:25:26.172Z,45.33
2024-01-28T15:27:27.902Z,45.50
2024-01-28T15:29:32.320Z,45.69
2024-01-28T15:31:36.623Z,45.44
2024-01-28T15:36:21.595Z,45.90
2024-01-28T15:38:23.244Z,45.67
2024-01-28T15:40:24.849Z,45.72
2024-01-28T15:42:26.449Z,45.41
2024-01-28T15:44:30.334Z,45.36
2024-01-28T15:46:34.108Z,45.59
2024-01-28T15:48:36.616Z,45.57
2024-01-28T15:50:38.338Z,45.79
2024-01-28T15:52:41.076Z,45.59
2024-01-28T15:54:49.732Z,45.67
2024-01-28T15:56:51.305Z,45.79
2024-01-28T15:58:55.414Z,45.62
2024-01-28T16:03:41.884Z,45.63
2024-01-28T16:05:43.521Z,45.88
2024-01-28T16:07:46.311Z,45.92
2024-01-28T16:09:55.837Z,45.88
2024-01-28T16:12:33.537Z,45.90
2024-01-28T16:14:51.867Z,46.07
2024-01-28T16:16:56.282Z,46.32
2024-01-28T16:19:00.784Z,46.00
2024-01-28T16:21:02.515Z,46.17
2024-01-28T16:23:08.303Z,46.25
2024-01-28T16:25:10.070Z,46.23
2024-01-28T16:27:12.042Z,46.27
2024-01-28T16:29:15.667Z,46.25
2024-01-28T16:31:19.782Z,46.38
2024-01-28T16:33:21.551Z,46.35
2024-01-28T16:35:26.337Z,46.04
2024-01-28T16:37:27.818Z,46.12
2024-01-28T16:39:38.030Z,45.87
2024-01-28T16:41:42.388Z,45.97
2024-01-28T16:43:46.347Z,46.00
2024-01-28T16:45:50.085Z,46.16
2024-01-28T16:47:53.630Z,46.18
2024-01-28T16:49:56.564Z,46.46
2024-01-28T16:51:58.307Z,46.34
2024-01-28T16:54:01.424Z,46.25
2024-01-28T16:57:18.813Z,46.14
2024-01-28T16:59:24.452Z,46.21
2024-01-28T17:01:43.056Z,46.36
2024-01-28T17:03:53.340Z,46.32
2024-01-28T17:09:08.229Z,46.96
2024-01-28T17:09:37.425Z,46.71
2024-01-28T17:14:42.319Z,48.39
2024-01-28T17:17:52.556Z,48.86
2024-01-28T17:24:13.885Z,49.73
2024-01-28T17:26:42.363Z,50.10
2024-01-28T17:29:34.206Z,50.86
2024-01-28T17:38:00.650Z,51.65
2024-01-28T17:40:15.396Z,51.98
2024-01-28T17:50:00.856Z,52.61
2024-01-28T17:58:42.186Z,52.54
2024-01-28T18:00:57.614Z,52.72
2024-01-28T18:03:04.728Z,52.34
2024-01-28T18:05:08.943Z,52.33
2024-01-28T18:07:12.872Z,52.35
2024-01-28T18:09:21.439Z,51.96
2024-01-28T18:11:25.573Z,51.82
2024-01-28T18:13:29.664Z,51.84
2024-01-28T18:15:33.432Z,51.90
2024-01-28T18:17:35.108Z,51.86
2024-01-28T18:19:36.797Z,51.90
2024-01-28T18:21:38.930Z,51.74
2024-01-28T18:23:45.151Z,51.67
2024-01-28T18:25:48.915Z,51.29
2024-01-28T18:27:50.525Z,51.04
2024-01-28T18:29:56.054Z,50.55
2024-01-28T18:31:59.924Z,50.34
2024-01-28T18:34:01.670Z,50.20
2024-01-28T18:36:07.063Z,50.18
2024-01-28T18:38:09.949Z,50.25
2024-01-28T18:40:14.619Z,50.41
2024-01-28T18:42:16.463Z,50.31
2024-01-28T18:44:30.008Z,50.27
2024-01-28T18:46:34.022Z,50.34
2024-01-28T18:48:36.151Z,50.31
2024-01-28T18:50:43.105Z,50.43
2024-01-28T18:52:44.665Z,50.52
2024-01-28T18:54:46.296Z,50.68
2024-01-28T18:56:54.040Z,50.59
2024-01-28T18:58:55.748Z,50.64
2024-01-28T19:00:57.674Z,50.61
2024-01-28T19:02:59.442Z,50.81
2024-01-28T19:05:02.487Z,50.79
2024-01-28T19:07:04.992Z,50.95
2024-01-28T19:09:09.350Z,51.07
2024-01-28T19:11:15.195Z,51.07
2024-01-28T19:13:31.013Z,51.18
2024-01-28T19:15:34.914Z,51.24
2024-01-28T19:17:36.553Z,51.15
2024-01-28T19:19:40.705Z,51.11
2024-01-28T19:21:58.650Z,51.24
2024-01-28T19:24:02.857Z,51.26
2024-01-28T19:26:04.876Z,51.30
2024-01-28T19:28:14.899Z,51.41
2024-01-28T19:30:24.194Z,50.98
2024-01-28T19:32:28.044Z,50.57
2024-01-28T19:34:31.794Z,50.41
2024-01-28T19:36:43.103Z,49.94
2024-01-28T19:38:47.372Z,49.87
2024-01-28T19:40:52.780Z,50.05
2024-01-28T19:42:57.063Z,50.15
2024-01-28T19:44:59.641Z,50.44
2024-01-28T19:47:01.122Z,50.21
2024-01-28T19:49:07.445Z,50.40
2024-01-28T19:51:09.668Z,50.57
2024-01-28T19:53:11.226Z,50.66
2024-01-28T19:55:12.713Z,50.92
2024-01-28T19:57:17.176Z,50.20
2024-01-28T19:59:22.573Z,48.52
2024-01-28T20:01:24.541Z,47.53
2024-01-28T20:03:30.376Z,46.58
2024-01-28T20:05:34.866Z,45.69
2024-01-28T20:07:37.022Z,44.97
2024-01-28T20:10:03.513Z,44.58
2024-01-28T20:12:28.064Z,44.53
2024-01-28T20:14:29.885Z,45.09
2024-01-28T20:16:37.205Z,46.42
2024-01-28T20:18:52.346Z,47.03
2024-01-28T20:20:54.469Z,47.59
2024-01-28T20:22:58.999Z,48.12
2024-01-28T20:25:05.110Z,48.20
2024-01-28T20:27:11.470Z,48.43
2024-01-28T20:29:13.150Z,48.73
2024-01-28T20:31:18.598Z,48.65
2024-01-28T20:33:20.458Z,49.05
2024-01-28T20:35:22.055Z,49.27
2024-01-28T20:37:26.500Z,49.59
2024-01-28T20:39:33.973Z,50.11
2024-01-28T20:41:44.814Z,50.17
2024-01-28T20:43:55.318Z,50.56
2024-01-28T20:45:58.016Z,50.55
2024-01-28T20:47:59.630Z,50.77
2024-01-28T20:50:02.245Z,50.84
2024-01-28T20:52:07.289Z,51.03
2024-01-28T20:54:11.037Z,51.05
2024-01-28T20:56:25.796Z,51.14
2024-01-28T20:58:30.715Z,51.29
2024-01-28T21:00:44.490Z,51.33
2024-01-28T21:02:46.300Z,51.04
2024-01-28T21:04:50.198Z,51.27
2024-01-28T21:06:56.545Z,51.47
2024-01-28T21:08:58.744Z,51.29
2024-01-28T21:11:31.002Z,51.13
2024-01-28T21:13:34.709Z,50.57
2024-01-28T21:18:07.438Z,51.04
2024-01-28T21:20:09.689Z,50.71
2024-01-28T21:22:20.586Z,50.80
2024-01-28T21:24:32.271Z,50.91
2024-01-28T21:27:01.736Z,51.01
2024-01-28T21:29:45.489Z,51.01
2024-01-28T21:32:00.410Z,51.27
2024-01-28T21:34:14.044Z,51.23
2024-01-28T21:36:33.437Z,51.23
2024-01-28T21:38:37.613Z,51.38
2024-01-28T21:40:39.212Z,51.16
2024-01-28T21:42:43.144Z,51.09
2024-01-28T21:44:48.368Z,51.42
2024-01-28T21:46:54.814Z,51.46
2024-01-28T21:48:56.458Z,51.34
2024-01-28T21:51:01.366Z,51.46
2024-01-28T21:53:22.831Z,51.76
2024-01-28T21:55:31.938Z,51.68
2024-01-28T21:57:36.541Z,51.57
2024-01-28T21:59:39.973Z,51.74
2024-01-28T22:01:42.801Z,51.50
2024-01-28T22:03:45.504Z,51.56
2024-01-28T22:05:47.271Z,51.42
2024-01-28T22:07:52.025Z,51.53
2024-01-28T22:09:53.814Z,51.83
2024-01-28T22:11:58.099Z,51.98
2024-01-28T22:13:59.722Z,51.77
2024-01-28T22:16:01.390Z,51.83
2024-01-28T22:18:03.093Z,51.62
2024-01-28T22:20:05.156Z,51.58
2024-01-28T22:22:14.117Z,51.83
2024-01-28T22:24:22.167Z,51.39
2024-01-28T22:26:27.460Z,51.32
2024-01-28T22:28:32.454Z,51.51
2024-01-28T22:30:37.226Z,51.71
2024-01-28T22:32:39.500Z,51.70
2024-01-28T22:34:44.214Z,52.10
2024-01-28T22:36:47.324Z,51.92
2024-01-28T22:38:48.861Z,51.89
2024-01-28T22:40:50.539Z,51.96
2024-01-28T22:47:01.062Z,51.96
2024-01-28T22:49:02.768Z,52.07
2024-01-28T22:51:07.240Z,52.33
2024-01-28T22:53:08.736Z,52.24
2024-01-28T22:55:10.276Z,52.19
2024-01-28T22:57:15.194Z,52.43
2024-01-28T22:59:17.272Z,52.19
2024-01-28T23:01:20.752Z,52.10
2024-01-28T23:03:22.530Z,52.45
2024-01-28T23:05:24.580Z,52.31
2024-01-28T23:07:26.084Z,52.31
2024-01-28T23:09:27.694Z,52.26
2024-01-28T23:11:48.068Z,52.17
2024-01-28T23:14:02.635Z,52.41
2024-01-28T23:16:07.193Z,52.45
2024-01-28T23:18:09.131Z,52.12
2024-01-28T23:20:11.065Z,52.36
2024-01-28T23:22:12.874Z,51.91
2024-01-28T23:24:16.458Z,52.03
2024-01-28T23:26:20.259Z,52.34
2024-01-28T23:28:24.061Z,52.39
2024-01-28T23:30:30.514Z,52.17
2024-01-28T23:32:32.171Z,52.22
2024-01-28T23:34:33.986Z,52.15
2024-01-28T23:36:35.806Z,52.32
2024-01-28T23:38:39.181Z,52.22
2024-01-28T23:40:43.177Z,52.28
2024-01-28T23:42:44.729Z,52.23
2024-01-28T23:44:48.738Z,52.39
2024-01-28T23:46:50.986Z,52.57
2024-01-28T23:48:54.942Z,52.56
2024-01-28T23:50:58.120Z,52.49
2024-01-28T23:52:59.599Z,52.85
2024-01-28T23:55:04.568Z,52.60
2024-01-28T23:57:09.047Z,52.69
2024-01-28T23:59:10.522Z,52.57
